• Join FlightAware (Why Join?)
  • Login
  • US Flag 
04:40AM EDT


 

Airport Tracker/Info


-or-


 

Live Flight TrackerFlight Track Log ✈ SKW5315 ✈ 9 May 2013 ✈ KRKS - KDEN

Flight Track Log - Related Links

Times and Time Zones

All times are in EDT time to prevent confusion due to time zone crossing. See the SKW5315 flight status page for this flight to view local times or setup timezone preferences in your user account.

Time Position Orientation Groundspeed Altitude Reporting Facility
EDT Latitude Longitude Course Direction KTS MPH feet Rate Location/Type
12:43PM 41.5914 -108.9894 90° East 137 158 9,200  Level Denver Center
12:44PM 41.6036 -108.9150 78° East 171 197 10,600 1,440 Climbing Denver Center
12:45PM 41.6108 -108.8467 82° East 187 215 12,200 1,560 Climbing Denver Center
12:46PM 41.3999 -108.5387 79° East  Level Estimated
12:46PM 41.6189 -108.7825 80° East 185 213 13,900  Level Denver Center
12:47PM 41.3673 -108.4513 82° East  Level Estimated
12:47PM 41.6281 -108.7061 81° East 186 214 15,200  Level Denver Center
12:48PM 41.6369 -108.6356 80° East 196 226 16,200 1,020 Climbing Denver Center
12:49PM 41.6475 -108.5481 81° East 210 242 17,400 900 Climbing Denver Center
12:50PM 41.6556 -108.4717 82° East 216 249 18,100 900 Climbing Denver Center
12:51PM 41.6661 -108.3708 82° East 216 249 19,400 960 Climbing Salt Lake Center
12:52PM 41.6750 -108.2944 81° East 216 249 20,300 840 Climbing Salt Lake Center
12:53PM 41.6839 -108.2167 81° East 220 253 21,200 840 Climbing Salt Lake Center
12:54PM 41.6942 -108.1300 81° East 214 246 22,100 840 Climbing Salt Lake Center
12:55PM 41.7047 -108.0519 80° East 217 250 22,900 660 Climbing Denver Center
12:56PM 41.7131 -107.9744 82° East 220 253 23,500 660 Climbing Denver Center
12:57PM 41.7208 -107.8825 84° East 224 258 24,300 660 Climbing Denver Center
12:58PM 41.6986 -107.8064 111° Southeast 229 264 24,900 360 Climbing Denver Center
12:59PM 41.6767 -107.7142 108° East 234 269 25,100 60 Climbing Denver Center
01:00PM 41.6561 -107.6317 108° East 243 280 25,100  Level Denver Center
01:01PM 41.6344 -107.5500 110° East 243 280 25,100  Level Denver Center
01:02PM 41.6100 -107.4558 109° East 241 277 25,100  Level Denver Center
01:03PM 41.5897 -107.3769 109° East 236 272 25,100  Level Denver Center
01:05PM 41.5619 -107.2733 110° East 233 268 25,100  Level Denver Center
01:06PM 41.5383 -107.1836 109° East 230 265 25,100  Level Denver Center
01:07PM 41.5172 -107.1058 110° East 232 267 25,100  Level Denver Center
01:08PM 41.4936 -107.0167 109° East 231 266 25,100  Level Denver Center
01:09PM 41.4775 -106.9514 108° East 232 267 25,100  Level Denver Center
01:10PM 41.4514 -106.8611 111° Southeast 233 268 25,100  Level Denver Center
01:11PM 41.4289 -106.7689 108° East 235 270 25,100  Level Denver Center
01:12PM 41.4064 -106.6900 111° Southeast 237 273 25,100  Level Denver Center
01:13PM 41.3814 -106.5967 110° East 239 275 25,100  Level Denver Center
01:14PM 41.3569 -106.5053 110° East 246 283 25,100  Level Denver Center
01:15PM 41.3344 -106.4236 110° East 245 282 25,100  Level Denver Center
01:16PM 41.3089 -106.3292 110° East 243 280 25,100  Level Denver Center
01:17PM 41.2847 -106.2444 111° Southeast 243 280 25,100  Level Denver Center
01:18PM 41.2639 -106.1669 110° East 236 272 25,100  Level Denver Center
01:19PM 41.2397 -106.0803 110° East 233 268 25,100  Level Denver Center
01:20PM 41.2189 -106.0019 109° East 235 270 25,100  Level Denver Center
01:21PM 41.1942 -105.9119 110° East 232 267 25,100  Level Denver Center
01:22PM 41.1725 -105.8353 111° Southeast 231 266 25,100 -660 Level Denver Center
01:23PM 41.1467 -105.7447 111° Southeast 234 269 23,800 -1,260 Descending Denver Center
01:24PM 41.1253 -105.6675 110° East 234 269 22,600 -1,260 Descending Denver Center
01:25PM 41.1014 -105.5831 111° Southeast 222 255 21,200 -1,260 Descending Denver Center
01:26PM 41.0811 -105.5114 111° Southeast 218 251 20,100 -1,140 Descending Denver Center
01:27PM 41.0583 -105.4286 110° East 216 249 18,900 -1,080 Descending Denver Center
01:28PM 41.0392 -105.3606 110° East 211 243 17,900 -1,020 Descending Denver Center
01:29PM 41.0161 -105.2828 111° Southeast 206 237 16,900 -1,140 Descending Denver Center
01:30PM 40.9794 -105.2344 135° Southeast 199 229 15,600 -1,260 Descending Denver Center
01:32PM 40.9386 -105.1708 130° Southeast 198 228 14,300 -1,200 Descending Denver Center
01:33PM 40.9025 -105.1139 130° Southeast 202 232 13,200 -600 Descending Denver Center
01:34PM 40.8558 -105.0450 132° Southeast 213 245 13,100 -60 Descending Denver Center
01:35PM 40.8167 -104.9886 133° Southeast 218 251 13,100 -660 Level Denver Center
01:36PM 40.7725 -104.9281 134° Southeast 213 245 11,800 -1,020 Descending Denver Center
01:37PM 40.7311 -104.8694 133° Southeast 215 247 11,000 -480 Descending Denver Center
01:38PM 40.6917 -104.8142 133° Southeast 209 241 10,900  Descending Denver Center
01:39PM 40.6489 -104.7614 137° Southeast 199 229 11,000  Climbing Denver Center
01:40PM 40.6000 -104.7272 152° Southeast 199 229 11,000  Level Denver Center
01:41PM 40.5456 -104.6881 151° Southeast 207 238 11,000  Level Denver Center
01:42PM 40.4933 -104.6483 150° Southeast 215 247 11,000  Level Denver Center
01:43PM 40.4331 -104.6064 152° Southeast 225 259 11,000  Level Denver Center
01:44PM 40.3700 -104.5956 173° South 227 261 11,000  Level Denver Center
01:45PM 40.3106 -104.5856 173° South 218 251 11,000  Level Denver Center
01:46PM 40.2489 -104.6131 199° South 221 254 11,000  Level Denver Center
01:47PM 40.1889 -104.6036 173° South 215 247 11,000  Level Denver Center
01:48PM 40.1231 -104.6078 183° South 223 257 11,000  Level Denver Center
01:49PM 40.0833 -104.6000 171° South 225 259 11,000  Level Denver TRACON
01:50PM 40.0167 -104.5833 169° South 227 261 11,000  Level Denver TRACON
01:51PM 39.9500 -104.5667 169° South 213 245 11,000  Level Denver TRACON
01:52PM 39.8833 -104.5500 169° South 231 266 11,000  Level Denver TRACON
01:52PM 39.8556 -104.5564 190° South 229 264 11,000 -120 Level Denver Center
01:53PM 39.7919 -104.5531 178° South 228 262 10,900 -600 Descending Denver Center
01:54PM 39.7250 -104.5456 175° South 224 258 9,800 -1,020 Descending Denver Center
01:56PM 39.6633 -104.5386 175° South 223 257 8,900 -900 Descending Denver Center
01:57PM 39.5978 -104.5303 174° South 220 253 8,000 -540 Descending Denver Center
01:58PM 39.5367 -104.5381 186° South 226 260 7,900  Descending Denver Center
01:59PM 39.5275 -104.6147 261° West 221 254 8,000  Climbing Denver Center
02:00PM 39.5800 -104.6461 335° Northwest 199 229 8,000 -240 Level Denver Center
02:01PM 39.6403 -104.6436 North 200 230 7,600 -420 Descending Denver Center
02:02PM 39.6944 -104.6439 360° North 197 227 7,200 -420 Descending Denver Center